sensor_id;sensor_type;location;lat;lon;timestamp;temperature;humidity
1083;DHT22;530;51.448;7.238;2024-02-23T00:02:18;8.00;99.90
1083;DHT22;530;51.448;7.238;2024-02-23T00:04:44;8.00;99.90
1083;DHT22;530;51.448;7.238;2024-02-23T00:07:10;8.00;99.90
1083;DHT22;530;51.448;7.238;2024-02-23T00:09:36;7.90;99.90
1083;DHT22;530;51.448;7.238;2024-02-23T00:12:02;7.80;99.90
1083;DHT22;530;51.448;7.238;2024-02-23T00:14:29;7.80;99.90
1083;DHT22;530;51.448;7.238;2024-02-23T00:16:56;7.80;99.90
1083;DHT22;530;51.448;7.238;2024-02-23T00:19:22;7.90;99.90
1083;DHT22;530;51.448;7.238;2024-02-23T00:21:49;7.90;99.90
1083;DHT22;530;51.448;7.238;2024-02-23T00:24:19;7.80;99.90
1083;DHT22;530;51.448;7.238;2024-02-23T00:26:48;7.90;99.90
1083;DHT22;530;51.448;7.238;2024-02-23T00:29:14;7.90;99.90
1083;DHT22;530;51.448;7.238;2024-02-23T00:31:39;7.90;99.90
1083;DHT22;530;51.448;7.238;2024-02-23T00:34:08;7.90;99.90
1083;DHT22;530;51.448;7.238;2024-02-23T00:36:39;7.90;99.90
1083;DHT22;530;51.448;7.238;2024-02-23T00:39:06;8.00;99.90
1083;DHT22;530;51.448;7.238;2024-02-23T00:41:33;7.90;99.90
1083;DHT22;530;51.448;7.238;2024-02-23T00:43:59;7.90;99.90
1083;DHT22;530;51.448;7.238;2024-02-23T00:46:24;7.90;99.90
1083;DHT22;530;51.448;7.238;2024-02-23T00:48:50;7.90;99.90
1083;DHT22;530;51.448;7.238;2024-02-23T00:51:16;7.90;99.90
1083;DHT22;530;51.448;7.238;2024-02-23T00:53:42;7.80;99.90
1083;DHT22;530;51.448;7.238;2024-02-23T00:56:07;7.80;99.90
1083;DHT22;530;51.448;7.238;2024-02-23T00:58:33;7.80;99.90
1083;DHT22;530;51.448;7.238;2024-02-23T01:00:59;7.80;99.90
1083;DHT22;530;51.448;7.238;2024-02-23T01:03:26;7.80;99.90
1083;DHT22;530;51.448;7.238;2024-02-23T01:05:51;7.80;99.90
1083;DHT22;530;51.448;7.238;2024-02-23T01:08:17;7.70;99.90
1083;DHT22;530;51.448;7.238;2024-02-23T01:10:43;7.70;99.90
1083;DHT22;530;51.448;7.238;2024-02-23T01:13:09;7.70;99.90
1083;DHT22;530;51.448;7.238;2024-02-23T01:15:35;7.70;99.90
1083;DHT22;530;51.448;7.238;2024-02-23T01:18:00;7.70;99.90
1083;DHT22;530;51.448;7.238;2024-02-23T01:20:26;7.70;99.90
1083;DHT22;530;51.448;7.238;2024-02-23T01:22:52;7.70;99.90
1083;DHT22;530;51.448;7.238;2024-02-23T01:25:17;7.60;99.90
1083;DHT22;530;51.448;7.238;2024-02-23T01:27:43;7.60;99.90
1083;DHT22;530;51.448;7.238;2024-02-23T01:30:10;7.70;99.90
1083;DHT22;530;51.448;7.238;2024-02-23T01:32:36;7.60;99.90
1083;DHT22;530;51.448;7.238;2024-02-23T01:35:05;7.70;99.90
1083;DHT22;530;51.448;7.238;2024-02-23T01:37:30;7.60;99.90
1083;DHT22;530;51.448;7.238;2024-02-23T01:39:57;7.60;99.90
1083;DHT22;530;51.448;7.238;2024-02-23T01:42:23;7.60;99.90
1083;DHT22;530;51.448;7.238;2024-02-23T01:44:49;7.60;99.90
1083;DHT22;530;51.448;7.238;2024-02-23T01:47:15;7.60;99.90
1083;DHT22;530;51.448;7.238;2024-02-23T01:49:41;7.60;99.90
1083;DHT22;530;51.448;7.238;2024-02-23T01:52:08;7.70;99.90
1083;DHT22;530;51.448;7.238;2024-02-23T01:54:33;7.60;99.90
1083;DHT22;530;51.448;7.238;2024-02-23T01:57:00;7.60;99.90
1083;DHT22;530;51.448;7.238;2024-02-23T01:59:27;7.60;99.90
1083;DHT22;530;51.448;7.238;2024-02-23T02:01:53;7.50;99.90
1083;DHT22;530;51.448;7.238;2024-02-23T02:04:19;7.50;99.90
1083;DHT22;530;51.448;7.238;2024-02-23T02:06:45;7.50;99.90
1083;DHT22;530;51.448;7.238;2024-02-23T02:09:11;7.50;99.90
1083;DHT22;530;51.448;7.238;2024-02-23T02:11:48;7.50;99.90
1083;DHT22;530;51.448;7.238;2024-02-23T02:14:14;7.50;99.90
1083;DHT22;530;51.448;7.238;2024-02-23T02:16:40;7.40;99.90
1083;DHT22;530;51.448;7.238;2024-02-23T02:19:06;7.40;99.90
1083;DHT22;530;51.448;7.238;2024-02-23T02:21:33;7.40;99.90
1083;DHT22;530;51.448;7.238;2024-02-23T02:23:58;7.40;99.90
1083;DHT22;530;51.448;7.238;2024-02-23T02:26:24;7.40;99.90
1083;DHT22;530;51.448;7.238;2024-02-23T02:28:50;7.50;99.90
1083;DHT22;530;51.448;7.238;2024-02-23T02:31:15;7.40;99.90
1083;DHT22;530;51.448;7.238;2024-02-23T02:33:41;7.50;99.90
1083;DHT22;530;51.448;7.238;2024-02-23T02:36:07;7.50;99.90
1083;DHT22;530;51.448;7.238;2024-02-23T02:38:33;7.50;99.90
1083;DHT22;530;51.448;7.238;2024-02-23T02:40:59;7.40;99.90
1083;DHT22;530;51.448;7.238;2024-02-23T02:43:26;7.40;99.90
1083;DHT22;530;51.448;7.238;2024-02-23T02:45:52;7.50;99.90
1083;DHT22;530;51.448;7.238;2024-02-23T02:48:18;7.40;99.90
1083;DHT22;530;51.448;7.238;2024-02-23T02:50:44;7.40;99.90
1083;DHT22;530;51.448;7.238;2024-02-23T02:53:10;7.50;99.90
1083;DHT22;530;51.448;7.238;2024-02-23T02:55:37;7.50;99.90
1083;DHT22;530;51.448;7.238;2024-02-23T02:58:02;7.50;99.90
1083;DHT22;530;51.448;7.238;2024-02-23T03:00:28;7.50;99.90
1083;DHT22;530;51.448;7.238;2024-02-23T03:02:54;7.50;99.90
1083;DHT22;530;51.448;7.238;2024-02-23T03:05:19;7.40;99.90
1083;DHT22;530;51.448;7.238;2024-02-23T03:07:45;7.40;99.90
1083;DHT22;530;51.448;7.238;2024-02-23T03:10:11;7.40;99.90
1083;DHT22;530;51.448;7.238;2024-02-23T03:12:37;7.50;99.90
1083;DHT22;530;51.448;7.238;2024-02-23T03:15:03;7.40;99.90
1083;DHT22;530;51.448;7.238;2024-02-23T03:17:29;7.50;99.90
1083;DHT22;530;51.448;7.238;2024-02-23T03:19:55;7.50;99.90
1083;DHT22;530;51.448;7.238;2024-02-23T03:22:20;7.50;99.90
1083;DHT22;530;51.448;7.238;2024-02-23T03:24:46;7.50;99.90
1083;DHT22;530;51.448;7.238;2024-02-23T03:27:12;7.50;99.90
1083;DHT22;530;51.448;7.238;2024-02-23T03:29:38;7.50;99.90
1083;DHT22;530;51.448;7.238;2024-02-23T03:32:05;7.40;99.90
1083;DHT22;530;51.448;7.238;2024-02-23T03:34:31;7.40;99.90
1083;DHT22;530;51.448;7.238;2024-02-23T03:36:56;7.40;99.90
1083;DHT22;530;51.448;7.238;2024-02-23T03:39:24;7.30;99.90
1083;DHT22;530;51.448;7.238;2024-02-23T03:41:49;7.30;99.90
1083;DHT22;530;51.448;7.238;2024-02-23T03:44:15;7.30;99.90
1083;DHT22;530;51.448;7.238;2024-02-23T03:46:41;7.30;99.90
1083;DHT22;530;51.448;7.238;2024-02-23T03:49:06;7.30;99.90
1083;DHT22;530;51.448;7.238;2024-02-23T03:51:32;7.30;99.90
1083;DHT22;530;51.448;7.238;2024-02-23T03:54:01;7.30;99.90
1083;DHT22;530;51.448;7.238;2024-02-23T03:56:27;7.40;99.90
1083;DHT22;530;51.448;7.238;2024-02-23T03:58:52;7.30;99.90
1083;DHT22;530;51.448;7.238;2024-02-23T04:01:18;7.40;99.90
1083;DHT22;530;51.448;7.238;2024-02-23T04:03:44;7.40;99.90
1083;DHT22;530;51.448;7.238;2024-02-23T04:06:09;7.40;99.90
1083;DHT22;530;51.448;7.238;2024-02-23T04:08:35;7.50;99.90
1083;DHT22;530;51.448;7.238;2024-02-23T04:11:00;7.50;99.90
1083;DHT22;530;51.448;7.238;2024-02-23T04:13:26;7.50;99.90
1083;DHT22;530;51.448;7.238;2024-02-23T04:15:52;7.50;99.90
1083;DHT22;530;51.448;7.238;2024-02-23T04:18:17;7.50;99.90
1083;DHT22;530;51.448;7.238;2024-02-23T04:20:43;7.40;99.90
1083;DHT22;530;51.448;7.238;2024-02-23T04:23:09;7.30;99.90
1083;DHT22;530;51.448;7.238;2024-02-23T04:25:34;7.30;99.90
1083;DHT22;530;51.448;7.238;2024-02-23T04:28:00;7.30;99.90
1083;DHT22;530;51.448;7.238;2024-02-23T04:30:26;7.30;99.90
1083;DHT22;530;51.448;7.238;2024-02-23T04:32:51;7.20;99.90
1083;DHT22;530;51.448;7.238;2024-02-23T04:35:17;7.20;99.90
1083;DHT22;530;51.448;7.238;2024-02-23T04:37:46;7.20;99.90
1083;DHT22;530;51.448;7.238;2024-02-23T04:40:11;7.20;99.90
1083;DHT22;530;51.448;7.238;2024-02-23T04:42:37;7.30;99.90
1083;DHT22;530;51.448;7.238;2024-02-23T04:45:04;7.20;99.90
1083;DHT22;530;51.448;7.238;2024-02-23T04:47:30;7.20;99.90
1083;DHT22;530;51.448;7.238;2024-02-23T04:49:56;7.30;99.90
1083;DHT22;530;51.448;7.238;2024-02-23T04:52:21;7.30;99.90
1083;DHT22;530;51.448;7.238;2024-02-23T04:54:47;7.30;99.90
1083;DHT22;530;51.448;7.238;2024-02-23T04:57:13;7.30;99.90
1083;DHT22;530;51.448;7.238;2024-02-23T04:59:38;7.30;99.90
1083;DHT22;530;51.448;7.238;2024-02-23T05:02:04;7.30;99.90
1083;DHT22;530;51.448;7.238;2024-02-23T05:04:30;7.30;99.90
1083;DHT22;530;51.448;7.238;2024-02-23T05:06:55;7.30;99.90
1083;DHT22;530;51.448;7.238;2024-02-23T05:09:21;7.30;99.90
1083;DHT22;530;51.448;7.238;2024-02-23T05:11:47;7.30;99.90
1083;DHT22;530;51.448;7.238;2024-02-23T05:14:13;7.30;99.90
1083;DHT22;530;51.448;7.238;2024-02-23T05:16:39;7.30;99.90
1083;DHT22;530;51.448;7.238;2024-02-23T05:19:05;7.30;99.90
1083;DHT22;530;51.448;7.238;2024-02-23T05:21:30;7.30;99.90
1083;DHT22;530;51.448;7.238;2024-02-23T05:23:56;7.20;99.90
1083;DHT22;530;51.448;7.238;2024-02-23T05:26:22;7.30;99.90
1083;DHT22;530;51.448;7.238;2024-02-23T05:28:48;7.20;99.90
1083;DHT22;530;51.448;7.238;2024-02-23T05:31:14;7.30;99.90
1083;DHT22;530;51.448;7.238;2024-02-23T05:33:40;7.30;99.90
1083;DHT22;530;51.448;7.238;2024-02-23T05:36:07;7.30;99.90
1083;DHT22;530;51.448;7.238;2024-02-23T05:38:32;7.30;99.90
1083;DHT22;530;51.448;7.238;2024-02-23T05:40:58;7.30;99.90
1083;DHT22;530;51.448;7.238;2024-02-23T05:43:24;7.30;99.90
1083;DHT22;530;51.448;7.238;2024-02-23T05:45:49;7.30;99.90
1083;DHT22;530;51.448;7.238;2024-02-23T05:48:15;7.30;99.90
1083;DHT22;530;51.448;7.238;2024-02-23T05:50:40;7.30;99.90
1083;DHT22;530;51.448;7.238;2024-02-23T05:53:06;7.30;99.90
1083;DHT22;530;51.448;7.238;2024-02-23T05:55:32;7.30;99.90
1083;DHT22;530;51.448;7.238;2024-02-23T05:57:57;7.30;99.90
1083;DHT22;530;51.448;7.238;2024-02-23T06:00:23;7.30;99.90
1083;DHT22;530;51.448;7.238;2024-02-23T06:02:49;7.30;99.90
1083;DHT22;530;51.448;7.238;2024-02-23T06:05:14;7.30;99.90
1083;DHT22;530;51.448;7.238;2024-02-23T06:07:41;7.30;99.90
1083;DHT22;530;51.448;7.238;2024-02-23T06:10:07;7.20;99.90
1083;DHT22;530;51.448;7.238;2024-02-23T06:12:32;7.10;99.90
1083;DHT22;530;51.448;7.238;2024-02-23T06:14:58;7.10;99.90
1083;DHT22;530;51.448;7.238;2024-02-23T06:17:24;7.10;99.90
1083;DHT22;530;51.448;7.238;2024-02-23T06:19:50;7.10;99.90
1083;DHT22;530;51.448;7.238;2024-02-23T06:22:18;7.10;99.90
1083;DHT22;530;51.448;7.238;2024-02-23T06:24:47;7.20;99.90
1083;DHT22;530;51.448;7.238;2024-02-23T06:27:12;7.20;99.90
1083;DHT22;530;51.448;7.238;2024-02-23T06:29:38;7.20;99.90
1083;DHT22;530;51.448;7.238;2024-02-23T06:32:04;7.20;99.90
1083;DHT22;530;51.448;7.238;2024-02-23T06:34:30;7.20;99.90
1083;DHT22;530;51.448;7.238;2024-02-23T06:36:56;7.10;99.90
1083;DHT22;530;51.448;7.238;2024-02-23T06:39:21;7.20;99.90
1083;DHT22;530;51.448;7.238;2024-02-23T06:41:47;7.20;99.90
1083;DHT22;530;51.448;7.238;2024-02-23T06:44:13;7.20;99.90
1083;DHT22;530;51.448;7.238;2024-02-23T06:46:38;7.10;99.90
1083;DHT22;530;51.448;7.238;2024-02-23T06:49:04;7.20;99.90
1083;DHT22;530;51.448;7.238;2024-02-23T06:51:31;7.10;99.90
1083;DHT22;530;51.448;7.238;2024-02-23T06:53:57;7.20;99.90
1083;DHT22;530;51.448;7.238;2024-02-23T06:56:23;7.10;99.90
1083;DHT22;530;51.448;7.238;2024-02-23T06:58:49;7.20;99.90
1083;DHT22;530;51.448;7.238;2024-02-23T07:01:14;7.20;99.90
1083;DHT22;530;51.448;7.238;2024-02-23T07:03:40;7.10;99.90
1083;DHT22;530;51.448;7.238;2024-02-23T07:06:08;7.10;99.90
1083;DHT22;530;51.448;7.238;2024-02-23T07:08:35;7.10;99.90
1083;DHT22;530;51.448;7.238;2024-02-23T07:11:01;7.10;99.90
1083;DHT22;530;51.448;7.238;2024-02-23T07:13:27;7.20;99.90
1083;DHT22;530;51.448;7.238;2024-02-23T07:15:53;7.20;99.90
1083;DHT22;530;51.448;7.238;2024-02-23T07:18:19;7.30;99.90
1083;DHT22;530;51.448;7.238;2024-02-23T07:20:44;7.30;99.90
1083;DHT22;530;51.448;7.238;2024-02-23T07:23:10;7.30;99.90
1083;DHT22;530;51.448;7.238;2024-02-23T07:25:36;7.40;99.90
1083;DHT22;530;51.448;7.238;2024-02-23T07:28:01;7.40;99.90
1083;DHT22;530;51.448;7.238;2024-02-23T07:30:27;7.30;99.90
1083;DHT22;530;51.448;7.238;2024-02-23T07:32:53;7.40;99.90
1083;DHT22;530;51.448;7.238;2024-02-23T07:35:19;7.40;99.90
1083;DHT22;530;51.448;7.238;2024-02-23T07:37:45;7.40;99.90
1083;DHT22;530;51.448;7.238;2024-02-23T07:40:11;7.50;99.90
1083;DHT22;530;51.448;7.238;2024-02-23T07:42:38;7.50;99.90
1083;DHT22;530;51.448;7.238;2024-02-23T07:45:04;7.60;99.90
1083;DHT22;530;51.448;7.238;2024-02-23T07:47:31;7.60;99.90
1083;DHT22;530;51.448;7.238;2024-02-23T07:49:57;7.50;99.90
1083;DHT22;530;51.448;7.238;2024-02-23T07:52:23;7.50;99.90
1083;DHT22;530;51.448;7.238;2024-02-23T07:54:51;7.60;99.90
1083;DHT22;530;51.448;7.238;2024-02-23T07:57:20;7.70;99.90
1083;DHT22;530;51.448;7.238;2024-02-23T07:59:47;7.70;99.90
1083;DHT22;530;51.448;7.238;2024-02-23T08:02:14;7.80;99.90
1083;DHT22;530;51.448;7.238;2024-02-23T08:04:40;7.80;99.90
1083;DHT22;530;51.448;7.238;2024-02-23T08:07:06;7.70;99.90
1083;DHT22;530;51.448;7.238;2024-02-23T08:09:31;7.80;99.90
1083;DHT22;530;51.448;7.238;2024-02-23T08:11:57;7.80;99.90
1083;DHT22;530;51.448;7.238;2024-02-23T08:14:23;7.80;99.90
1083;DHT22;530;51.448;7.238;2024-02-23T08:16:49;7.90;99.90
1083;DHT22;530;51.448;7.238;2024-02-23T08:19:15;8.00;99.90
1083;DHT22;530;51.448;7.238;2024-02-23T08:21:41;8.10;99.90
1083;DHT22;530;51.448;7.238;2024-02-23T08:24:07;8.20;99.90
1083;DHT22;530;51.448;7.238;2024-02-23T08:26:33;8.40;99.90
1083;DHT22;530;51.448;7.238;2024-02-23T08:28:59;8.70;99.90
1083;DHT22;530;51.448;7.238;2024-02-23T08:31:25;9.00;99.90
1083;DHT22;530;51.448;7.238;2024-02-23T08:33:50;9.20;99.90
1083;DHT22;530;51.448;7.238;2024-02-23T08:36:16;9.30;99.90
1083;DHT22;530;51.448;7.238;2024-02-23T08:38:42;9.30;99.90
1083;DHT22;530;51.448;7.238;2024-02-23T08:41:07;9.30;99.90
1083;DHT22;530;51.448;7.238;2024-02-23T08:43:34;9.30;99.90
1083;DHT22;530;51.448;7.238;2024-02-23T08:46:00;9.40;99.90
1083;DHT22;530;51.448;7.238;2024-02-23T08:48:25;9.40;99.90
1083;DHT22;530;51.448;7.238;2024-02-23T08:50:51;9.40;99.90
1083;DHT22;530;51.448;7.238;2024-02-23T08:53:17;9.20;99.90
1083;DHT22;530;51.448;7.238;2024-02-23T08:55:43;9.20;99.90
1083;DHT22;530;51.448;7.238;2024-02-23T08:58:09;9.20;99.90
1083;DHT22;530;51.448;7.238;2024-02-23T09:00:35;9.40;99.90
1083;DHT22;530;51.448;7.238;2024-02-23T09:03:03;9.50;99.90
1083;DHT22;530;51.448;7.238;2024-02-23T09:05:28;9.50;99.90
1083;DHT22;530;51.448;7.238;2024-02-23T09:07:54;9.40;99.90
1083;DHT22;530;51.448;7.238;2024-02-23T09:10:20;9.40;99.90
1083;DHT22;530;51.448;7.238;2024-02-23T09:12:46;9.30;99.90
1083;DHT22;530;51.448;7.238;2024-02-23T09:15:12;9.10;99.90
1083;DHT22;530;51.448;7.238;2024-02-23T09:17:40;9.00;99.90
1083;DHT22;530;51.448;7.238;2024-02-23T09:20:06;8.90;99.90
1083;DHT22;530;51.448;7.238;2024-02-23T09:22:32;8.90;99.90
1083;DHT22;530;51.448;7.238;2024-02-23T09:24:58;8.80;99.90
1083;DHT22;530;51.448;7.238;2024-02-23T09:27:24;8.70;99.90
1083;DHT22;530;51.448;7.238;2024-02-23T09:29:50;8.80;99.90
1083;DHT22;530;51.448;7.238;2024-02-23T09:32:15;8.70;99.90
1083;DHT22;530;51.448;7.238;2024-02-23T09:34:41;8.70;99.90
1083;DHT22;530;51.448;7.238;2024-02-23T09:37:07;8.70;99.90
1083;DHT22;530;51.448;7.238;2024-02-23T09:39:32;8.60;99.90
1083;DHT22;530;51.448;7.238;2024-02-23T09:41:58;8.70;99.90
1083;DHT22;530;51.448;7.238;2024-02-23T09:44:32;8.50;99.90
1083;DHT22;530;51.448;7.238;2024-02-23T09:47:02;8.40;99.90
1083;DHT22;530;51.448;7.238;2024-02-23T09:49:39;8.50;99.90
1083;DHT22;530;51.448;7.238;2024-02-23T09:52:07;8.50;99.90
1083;DHT22;530;51.448;7.238;2024-02-23T09:54:33;8.40;99.90
1083;DHT22;530;51.448;7.238;2024-02-23T09:57:01;8.50;99.90
1083;DHT22;530;51.448;7.238;2024-02-23T09:59:29;8.40;99.90
1083;DHT22;530;51.448;7.238;2024-02-23T10:01:56;8.40;99.90
1083;DHT22;530;51.448;7.238;2024-02-23T10:04:24;8.50;99.90
1083;DHT22;530;51.448;7.238;2024-02-23T10:06:51;8.50;99.90
1083;DHT22;530;51.448;7.238;2024-02-23T10:09:17;8.60;99.90
1083;DHT22;530;51.448;7.238;2024-02-23T10:11:42;8.70;99.90
1083;DHT22;530;51.448;7.238;2024-02-23T10:14:08;8.70;99.90
1083;DHT22;530;51.448;7.238;2024-02-23T10:16:34;8.80;99.90
1083;DHT22;530;51.448;7.238;2024-02-23T10:18:59;8.90;99.90
1083;DHT22;530;51.448;7.238;2024-02-23T10:21:25;8.90;99.90
1083;DHT22;530;51.448;7.238;2024-02-23T10:23:51;8.80;99.90
1083;DHT22;530;51.448;7.238;2024-02-23T10:26:17;8.70;99.90
1083;DHT22;530;51.448;7.238;2024-02-23T10:28:45;8.70;99.90
1083;DHT22;530;51.448;7.238;2024-02-23T10:31:12;8.70;99.90
1083;DHT22;530;51.448;7.238;2024-02-23T10:33:38;8.70;99.90
1083;DHT22;530;51.448;7.238;2024-02-23T10:36:05;8.60;99.90
1083;DHT22;530;51.448;7.238;2024-02-23T10:38:32;8.50;99.90
1083;DHT22;530;51.448;7.238;2024-02-23T10:41:03;8.50;99.90
1083;DHT22;530;51.448;7.238;2024-02-23T10:43:33;8.50;99.90
1083;DHT22;530;51.448;7.238;2024-02-23T10:46:01;8.50;99.90
1083;DHT22;530;51.448;7.238;2024-02-23T10:48:29;8.50;99.90
1083;DHT22;530;51.448;7.238;2024-02-23T10:50:56;8.50;99.90
1083;DHT22;530;51.448;7.238;2024-02-23T10:53:24;8.50;99.90
1083;DHT22;530;51.448;7.238;2024-02-23T10:55:56;8.50;99.90
1083;DHT22;530;51.448;7.238;2024-02-23T10:58:25;8.60;99.90
1083;DHT22;530;51.448;7.238;2024-02-23T11:00:51;8.70;99.90
1083;DHT22;530;51.448;7.238;2024-02-23T11:03:18;8.70;99.90
1083;DHT22;530;51.448;7.238;2024-02-23T11:05:47;8.90;99.90
1083;DHT22;530;51.448;7.238;2024-02-23T11:08:13;9.10;99.90
1083;DHT22;530;51.448;7.238;2024-02-23T11:10:43;9.20;99.90
1083;DHT22;530;51.448;7.238;2024-02-23T11:13:15;9.30;99.90
1083;DHT22;530;51.448;7.238;2024-02-23T11:15:42;9.50;99.90
1083;DHT22;530;51.448;7.238;2024-02-23T11:18:27;9.60;99.90
1083;DHT22;530;51.448;7.238;2024-02-23T11:21:01;9.90;99.90
1083;DHT22;530;51.448;7.238;2024-02-23T11:23:41;10.00;99.90
1083;DHT22;530;51.448;7.238;2024-02-23T11:28:50;10.10;99.90
1083;DHT22;530;51.448;7.238;2024-02-23T11:31:28;10.00;99.90
1083;DHT22;530;51.448;7.238;2024-02-23T11:33:55;9.90;99.90
1083;DHT22;530;51.448;7.238;2024-02-23T11:36:28;9.70;99.90
1083;DHT22;530;51.448;7.238;2024-02-23T11:38:55;9.60;99.90
1083;DHT22;530;51.448;7.238;2024-02-23T11:41:22;9.40;99.90
1083;DHT22;530;51.448;7.238;2024-02-23T11:43:51;9.30;99.90
1083;DHT22;530;51.448;7.238;2024-02-23T11:46:18;9.40;99.90
1083;DHT22;530;51.448;7.238;2024-02-23T11:48:45;9.50;99.90
1083;DHT22;530;51.448;7.238;2024-02-23T11:51:13;9.40;99.90
1083;DHT22;530;51.448;7.238;2024-02-23T11:53:39;9.30;99.90
1083;DHT22;530;51.448;7.238;2024-02-23T11:56:05;9.30;99.90
1083;DHT22;530;51.448;7.238;2024-02-23T11:58:32;9.30;99.90
1083;DHT22;530;51.448;7.238;2024-02-23T12:00:59;9.30;99.90
1083;DHT22;530;51.448;7.238;2024-02-23T12:03:28;9.20;99.90
1083;DHT22;530;51.448;7.238;2024-02-23T12:05:55;9.20;99.90
1083;DHT22;530;51.448;7.238;2024-02-23T12:08:23;9.20;99.90
1083;DHT22;530;51.448;7.238;2024-02-23T12:10:49;9.20;99.90
1083;DHT22;530;51.448;7.238;2024-02-23T12:13:15;9.20;99.90
1083;DHT22;530;51.448;7.238;2024-02-23T12:15:40;9.10;99.90
1083;DHT22;530;51.448;7.238;2024-02-23T12:18:06;9.00;99.90
1083;DHT22;530;51.448;7.238;2024-02-23T12:20:35;9.00;99.90
1083;DHT22;530;51.448;7.238;2024-02-23T12:23:01;8.90;99.90
1083;DHT22;530;51.448;7.238;2024-02-23T12:25:27;8.80;99.90
1083;DHT22;530;51.448;7.238;2024-02-23T12:27:56;8.80;99.90
1083;DHT22;530;51.448;7.238;2024-02-23T12:30:23;8.70;99.90
1083;DHT22;530;51.448;7.238;2024-02-23T12:32:48;8.70;99.90
1083;DHT22;530;51.448;7.238;2024-02-23T12:35:14;8.70;99.90
1083;DHT22;530;51.448;7.238;2024-02-23T12:37:40;8.60;99.90
1083;DHT22;530;51.448;7.238;2024-02-23T12:40:09;8.60;99.90
1083;DHT22;530;51.448;7.238;2024-02-23T12:42:35;8.70;99.90
1083;DHT22;530;51.448;7.238;2024-02-23T12:45:01;8.60;99.90
1083;DHT22;530;51.448;7.238;2024-02-23T12:47:26;8.70;99.90
1083;DHT22;530;51.448;7.238;2024-02-23T12:49:52;8.70;99.90
1083;DHT22;530;51.448;7.238;2024-02-23T12:52:18;8.70;99.90
1083;DHT22;530;51.448;7.238;2024-02-23T12:54:43;8.80;99.90
1083;DHT22;530;51.448;7.238;2024-02-23T12:57:09;8.70;99.90
1083;DHT22;530;51.448;7.238;2024-02-23T12:59:35;8.80;99.90
1083;DHT22;530;51.448;7.238;2024-02-23T13:02:00;8.80;99.90
1083;DHT22;530;51.448;7.238;2024-02-23T13:04:26;8.80;99.90
1083;DHT22;530;51.448;7.238;2024-02-23T13:06:52;8.80;99.90
1083;DHT22;530;51.448;7.238;2024-02-23T13:09:19;8.90;99.90
1083;DHT22;530;51.448;7.238;2024-02-23T13:11:45;8.90;99.90
1083;DHT22;530;51.448;7.238;2024-02-23T13:14:12;8.90;99.90
1083;DHT22;530;51.448;7.238;2024-02-23T13:16:38;8.90;99.90
1083;DHT22;530;51.448;7.238;2024-02-23T13:19:03;9.00;99.90
1083;DHT22;530;51.448;7.238;2024-02-23T13:21:29;9.00;99.90
1083;DHT22;530;51.448;7.238;2024-02-23T13:23:55;9.00;99.90
1083;DHT22;530;51.448;7.238;2024-02-23T13:26:20;9.00;99.90
1083;DHT22;530;51.448;7.238;2024-02-23T13:28:46;8.90;99.90
1083;DHT22;530;51.448;7.238;2024-02-23T13:31:12;8.90;99.90
1083;DHT22;530;51.448;7.238;2024-02-23T13:33:38;9.00;99.90
1083;DHT22;530;51.448;7.238;2024-02-23T13:36:05;9.00;99.90
1083;DHT22;530;51.448;7.238;2024-02-23T13:38:30;9.10;99.90
1083;DHT22;530;51.448;7.238;2024-02-23T13:40:56;9.20;99.90
1083;DHT22;530;51.448;7.238;2024-02-23T13:43:22;9.10;99.90
1083;DHT22;530;51.448;7.238;2024-02-23T13:45:52;9.20;99.90
1083;DHT22;530;51.448;7.238;2024-02-23T13:48:18;9.30;99.90
1083;DHT22;530;51.448;7.238;2024-02-23T13:50:47;9.20;99.90
1083;DHT22;530;51.448;7.238;2024-02-23T13:53:13;9.20;99.90
1083;DHT22;530;51.448;7.238;2024-02-23T13:55:40;9.20;99.90
1083;DHT22;530;51.448;7.238;2024-02-23T13:58:08;9.20;99.90
1083;DHT22;530;51.448;7.238;2024-02-23T14:00:33;9.20;99.90
1083;DHT22;530;51.448;7.238;2024-02-23T14:02:59;9.10;99.90
1083;DHT22;530;51.448;7.238;2024-02-23T14:05:25;9.10;99.90
1083;DHT22;530;51.448;7.238;2024-02-23T14:07:51;9.10;99.90
1083;DHT22;530;51.448;7.238;2024-02-23T14:10:19;9.20;99.90
1083;DHT22;530;51.448;7.238;2024-02-23T14:12:44;9.20;99.90
1083;DHT22;530;51.448;7.238;2024-02-23T14:15:10;9.20;99.90
1083;DHT22;530;51.448;7.238;2024-02-23T14:17:38;9.20;99.90
1083;DHT22;530;51.448;7.238;2024-02-23T14:20:04;9.30;99.90
1083;DHT22;530;51.448;7.238;2024-02-23T14:22:31;9.30;99.90
1083;DHT22;530;51.448;7.238;2024-02-23T14:24:57;9.40;99.90
1083;DHT22;530;51.448;7.238;2024-02-23T14:27:23;9.40;99.90
1083;DHT22;530;51.448;7.238;2024-02-23T14:29:49;9.40;99.90
1083;DHT22;530;51.448;7.238;2024-02-23T14:32:16;9.40;99.90
1083;DHT22;530;51.448;7.238;2024-02-23T14:34:43;9.30;99.90
1083;DHT22;530;51.448;7.238;2024-02-23T14:37:09;9.40;99.90
1083;DHT22;530;51.448;7.238;2024-02-23T14:39:35;9.40;99.90
1083;DHT22;530;51.448;7.238;2024-02-23T14:42:00;9.40;99.90
1083;DHT22;530;51.448;7.238;2024-02-23T14:44:26;9.30;99.90
1083;DHT22;530;51.448;7.238;2024-02-23T14:46:52;9.30;99.90
1083;DHT22;530;51.448;7.238;2024-02-23T14:49:18;9.30;99.90
1083;DHT22;530;51.448;7.238;2024-02-23T14:51:44;9.20;99.90
1083;DHT22;530;51.448;7.238;2024-02-23T14:54:12;9.20;99.90
1083;DHT22;530;51.448;7.238;2024-02-23T14:56:38;9.20;99.90
1083;DHT22;530;51.448;7.238;2024-02-23T14:59:06;9.30;99.90
1083;DHT22;530;51.448;7.238;2024-02-23T15:01:37;9.30;99.90
1083;DHT22;530;51.448;7.238;2024-02-23T15:04:04;9.30;99.90
1083;DHT22;530;51.448;7.238;2024-02-23T15:06:30;9.30;99.90
1083;DHT22;530;51.448;7.238;2024-02-23T15:08:55;9.40;99.90
1083;DHT22;530;51.448;7.238;2024-02-23T15:11:21;9.40;99.90
1083;DHT22;530;51.448;7.238;2024-02-23T15:13:48;9.50;99.90
1083;DHT22;530;51.448;7.238;2024-02-23T15:16:13;9.40;99.90
1083;DHT22;530;51.448;7.238;2024-02-23T15:18:39;9.30;99.90
1083;DHT22;530;51.448;7.238;2024-02-23T15:21:05;9.20;99.90
1083;DHT22;530;51.448;7.238;2024-02-23T15:23:31;9.20;99.90
1083;DHT22;530;51.448;7.238;2024-02-23T15:25:56;9.20;99.90
1083;DHT22;530;51.448;7.238;2024-02-23T15:28:22;9.30;99.90
1083;DHT22;530;51.448;7.238;2024-02-23T15:30:53;9.30;99.90
1083;DHT22;530;51.448;7.238;2024-02-23T15:33:19;9.30;99.90
1083;DHT22;530;51.448;7.238;2024-02-23T15:35:45;9.30;99.90
1083;DHT22;530;51.448;7.238;2024-02-23T15:38:10;9.30;99.90
1083;DHT22;530;51.448;7.238;2024-02-23T15:40:36;9.20;99.90
1083;DHT22;530;51.448;7.238;2024-02-23T15:43:02;9.20;99.90
1083;DHT22;530;51.448;7.238;2024-02-23T15:45:29;9.20;99.90
1083;DHT22;530;51.448;7.238;2024-02-23T15:47:54;9.20;99.90
1083;DHT22;530;51.448;7.238;2024-02-23T15:50:20;9.10;99.90
1083;DHT22;530;51.448;7.238;2024-02-23T15:52:47;8.90;99.90
1083;DHT22;530;51.448;7.238;2024-02-23T15:55:13;8.90;99.90
1083;DHT22;530;51.448;7.238;2024-02-23T15:57:39;8.90;99.90
1083;DHT22;530;51.448;7.238;2024-02-23T16:00:05;8.90;99.90
1083;DHT22;530;51.448;7.238;2024-02-23T16:02:33;8.90;99.90
1083;DHT22;530;51.448;7.238;2024-02-23T16:05:01;8.80;99.90
1083;DHT22;530;51.448;7.238;2024-02-23T16:07:28;8.80;99.90
1083;DHT22;530;51.448;7.238;2024-02-23T16:09:53;8.80;99.90
1083;DHT22;530;51.448;7.238;2024-02-23T16:12:19;8.80;99.90
1083;DHT22;530;51.448;7.238;2024-02-23T16:14:45;8.60;99.90
1083;DHT22;530;51.448;7.238;2024-02-23T16:17:10;8.60;99.90
1083;DHT22;530;51.448;7.238;2024-02-23T16:19:36;8.60;99.90
1083;DHT22;530;51.448;7.238;2024-02-23T16:22:02;8.50;99.90
1083;DHT22;530;51.448;7.238;2024-02-23T16:24:28;8.50;99.90
1083;DHT22;530;51.448;7.238;2024-02-23T16:26:54;8.60;99.90
1083;DHT22;530;51.448;7.238;2024-02-23T16:29:20;8.50;99.90
1083;DHT22;530;51.448;7.238;2024-02-23T16:31:45;8.50;99.90